createdAt,value
2022-09-28T00:00:28.899Z,996.44
2022-09-28T00:02:45.275Z,996.40
2022-09-28T00:05:01.600Z,996.39
2022-09-28T00:07:21.684Z,996.39
2022-09-28T00:09:38.209Z,996.38
2022-09-28T00:11:58.793Z,996.34
2022-09-28T00:14:19.298Z,996.37
2022-09-28T00:16:38.786Z,996.36
2022-09-28T00:18:55.296Z,996.31
2022-09-28T00:21:15.827Z,996.31
2022-09-28T00:23:32.447Z,996.31
2022-09-28T00:25:50.053Z,996.32
2022-09-28T00:28:11.262Z,996.34
2022-09-28T00:30:29.877Z,996.33
2022-09-28T00:32:46.389Z,996.30
2022-09-28T00:35:05.612Z,996.25
2022-09-28T00:37:26.113Z,996.22
2022-09-28T00:39:46.819Z,996.26
2022-09-28T00:42:01.298Z,996.21
2022-09-28T00:44:17.931Z,996.24
2022-09-28T00:46:34.493Z,996.24
2022-09-28T00:48:51.009Z,996.22
2022-09-28T00:51:11.664Z,996.17
2022-09-28T00:53:34.920Z,996.21
2022-09-28T00:56:09.355Z,996.19
2022-09-28T00:58:25.907Z,996.17
2022-09-28T01:00:44.045Z,996.20
2022-09-28T01:03:02.169Z,996.18
2022-09-28T01:05:22.784Z,996.14
2022-09-28T01:07:42.299Z,996.19
2022-09-28T01:10:02.891Z,996.19
2022-09-28T01:12:23.535Z,996.15
2022-09-28T01:14:42.614Z,996.18
2022-09-28T01:17:04.239Z,996.12
2022-09-28T01:19:25.292Z,996.15
2022-09-28T01:21:45.920Z,996.12
2022-09-28T01:24:06.481Z,996.13
2022-09-28T01:26:23.024Z,996.12
2022-09-28T01:28:44.037Z,996.09
2022-09-28T01:31:04.571Z,996.06
2022-09-28T01:33:23.668Z,996.09
2022-09-28T01:35:40.161Z,996.05
2022-09-28T01:37:56.744Z,996.03
2022-09-28T01:40:17.334Z,996.02
2022-09-28T01:42:31.910Z,996.04
2022-09-28T01:44:50.063Z,995.99
2022-09-28T01:47:06.704Z,996.02
2022-09-28T01:52:34.206Z,996.03
2022-09-28T01:54:53.498Z,996.01
2022-09-28T02:00:33.172Z,995.95
2022-09-28T02:02:55.867Z,995.97
2022-09-28T02:05:17.097Z,995.91
2022-09-28T02:07:33.799Z,995.91
2022-09-28T02:09:56.325Z,995.90
2022-09-28T02:12:17.008Z,995.92
2022-09-28T02:14:52.417Z,995.91
2022-09-28T02:17:12.035Z,995.91
2022-09-28T02:19:58.043Z,995.93
2022-09-28T02:22:17.974Z,995.91
2022-09-28T02:24:40.019Z,995.94
2022-09-28T02:27:00.418Z,995.95
2022-09-28T02:29:18.795Z,995.91
2022-09-28T02:31:39.288Z,995.86
2022-09-28T02:33:59.838Z,995.89
2022-09-28T02:36:18.840Z,995.85
2022-09-28T02:38:38.026Z,995.84
2022-09-28T02:41:22.924Z,995.86
2022-09-28T02:43:39.483Z,995.80
2022-09-28T02:46:31.446Z,995.82
2022-09-28T02:49:00.064Z,995.79
2022-09-28T02:51:06.982Z,995.78
2022-09-28T02:53:25.772Z,995.77
2022-09-28T02:55:44.936Z,995.77
2022-09-28T02:58:28.701Z,995.75
2022-09-28T03:00:49.919Z,995.73
2022-09-28T03:03:08.986Z,995.70
2022-09-28T03:47:52.265Z,995.46
2022-09-28T03:50:10.902Z,995.45
2022-09-28T03:52:31.712Z,995.41
2022-09-28T03:55:57.541Z,995.45
2022-09-28T03:58:14.138Z,995.43
2022-09-28T04:00:31.028Z,995.40
2022-09-28T04:02:47.575Z,995.40
2022-09-28T04:23:01.838Z,995.29
2022-09-28T04:36:58.248Z,995.24
2022-09-28T04:38:57.838Z,995.21
2022-09-28T04:44:28.735Z,995.19
2022-09-28T04:48:59.552Z,995.21
2022-09-28T04:51:20.135Z,995.23
2022-09-28T05:01:09.195Z,995.24
2022-09-28T05:34:34.357Z,995.26
2022-09-28T05:36:48.896Z,995.24
2022-09-28T05:39:03.457Z,995.17
2022-09-28T05:41:23.742Z,995.16
2022-09-28T05:43:40.327Z,995.09
2022-09-28T05:46:00.483Z,995.14
2022-09-28T05:49:29.833Z,995.14
2022-09-28T05:51:45.335Z,995.15
2022-09-28T05:54:04.846Z,995.17
2022-09-28T05:56:21.995Z,995.08
2022-09-28T05:59:29.319Z,995.13
2022-09-28T06:03:31.484Z,995.11
2022-09-28T06:16:07.518Z,995.09
2022-09-28T06:18:42.043Z,995.10
2022-09-28T06:23:46.858Z,995.06
2022-09-28T06:27:44.833Z,995.00
2022-09-28T06:30:02.979Z,994.98
2022-09-28T06:32:21.816Z,994.97
2022-09-28T06:34:42.527Z,994.96
2022-09-28T06:38:24.312Z,995.00
2022-09-28T06:55:15.571Z,994.97
2022-09-28T07:03:14.220Z,994.94
2022-09-28T07:05:40.926Z,994.95
2022-09-28T07:11:43.473Z,994.94
2022-09-28T07:13:57.933Z,994.92
2022-09-28T07:17:13.280Z,994.88
2022-09-28T07:18:03.925Z,994.87
2022-09-28T07:20:19.455Z,994.84
2022-09-28T07:22:41.799Z,994.83
2022-09-28T07:23:33.617Z,994.84
2022-09-28T07:25:46.683Z,994.80
2022-09-28T07:27:59.792Z,994.82
2022-09-28T07:30:15.406Z,994.84
2022-09-28T07:34:46.541Z,994.84
2022-09-28T07:37:02.101Z,994.81
2022-09-28T07:39:17.698Z,994.86
2022-09-28T07:41:33.265Z,994.87
2022-09-28T07:43:51.337Z,994.87
2022-09-28T07:46:06.996Z,994.89
2022-09-28T07:48:22.501Z,994.88
2022-09-28T07:50:38.099Z,994.88
2022-09-28T07:52:53.665Z,994.85
2022-09-28T07:55:08.244Z,994.87
2022-09-28T07:57:23.861Z,994.89
2022-09-28T07:59:39.464Z,994.90
2022-09-28T08:01:52.603Z,994.86
2022-09-28T08:04:13.679Z,994.92
2022-09-28T08:06:29.212Z,994.89
2022-09-28T08:08:47.625Z,994.92
2022-09-28T08:11:02.500Z,994.97
2022-09-28T08:13:26.710Z,994.92
2022-09-28T08:15:36.179Z,994.94
2022-09-28T08:18:05.605Z,994.93
2022-09-28T08:20:21.202Z,994.93
2022-09-28T08:22:40.520Z,994.92
2022-09-28T08:25:01.414Z,994.90
2022-09-28T08:27:14.531Z,994.91
2022-09-28T08:29:30.119Z,994.97
2022-09-28T08:31:44.678Z,995.02
2022-09-28T08:33:57.746Z,994.99
2022-09-28T08:36:11.130Z,995.01
2022-09-28T08:38:26.737Z,995.05
2022-09-28T08:40:44.872Z,995.04
2022-09-28T08:43:03.564Z,995.09
2022-09-28T08:45:18.119Z,995.13
2022-09-28T08:47:49.035Z,995.09
2022-09-28T08:50:07.684Z,995.08
2022-09-28T08:52:23.708Z,995.09
2022-09-28T08:54:41.673Z,995.08
2022-09-28T08:56:56.284Z,995.06
2022-09-28T08:59:17.954Z,995.04
2022-09-28T09:01:38.106Z,995.01
2022-09-28T09:03:53.624Z,995.00
2022-09-28T09:06:06.996Z,994.97
2022-09-28T09:08:25.721Z,994.99
2022-09-28T09:10:44.141Z,995.02
2022-09-28T09:13:00.714Z,995.02
2022-09-28T09:15:18.939Z,994.97
2022-09-28T09:17:35.332Z,994.98
2022-09-28T09:19:49.919Z,995.01
2022-09-28T09:22:05.545Z,995.00
2022-09-28T09:24:24.393Z,995.08
2022-09-28T09:26:40.922Z,995.02
2022-09-28T09:28:56.387Z,995.05
2022-09-28T09:31:12.359Z,995.00
2022-09-28T09:33:27.999Z,995.01
2022-09-28T09:35:46.052Z,995.03
2022-09-28T09:38:01.580Z,995.05
2022-09-28T09:40:20.805Z,995.05
2022-09-28T09:42:36.340Z,995.04
2022-09-28T09:44:52.020Z,995.04
2022-09-28T09:47:10.917Z,995.05
2022-09-28T09:49:29.297Z,995.05
2022-09-28T09:51:44.635Z,995.05
2022-09-28T09:54:05.297Z,995.06
2022-09-28T09:56:18.340Z,995.01
2022-09-28T09:58:34.057Z,994.99
2022-09-28T10:00:48.479Z,995.00
2022-09-28T10:03:03.067Z,995.02
2022-09-28T10:05:19.488Z,995.00
2022-09-28T10:07:34.247Z,994.99
2022-09-28T10:09:48.824Z,995.00
2022-09-28T10:12:04.392Z,995.03
2022-09-28T10:14:20.011Z,994.99
2022-09-28T10:16:35.619Z,995.02
2022-09-28T10:18:51.330Z,995.04
2022-09-28T10:21:09.239Z,995.07
2022-09-28T10:23:24.815Z,995.02
2022-09-28T10:25:40.418Z,995.05
2022-09-28T10:27:58.481Z,995.01
2022-09-28T10:30:14.979Z,995.04
2022-09-28T10:32:30.656Z,995.04
2022-09-28T10:34:50.892Z,995.02
2022-09-28T10:37:03.335Z,995.07
2022-09-28T10:39:21.480Z,995.08
2022-09-28T10:40:21.451Z,995.02
2022-09-28T10:42:39.482Z,995.07
2022-09-28T10:44:59.464Z,995.03
2022-09-28T10:47:15.056Z,995.10
2022-09-28T10:49:33.145Z,995.09
2022-09-28T10:51:46.239Z,995.12
2022-09-28T10:54:02.201Z,995.05
2022-09-28T10:56:18.531Z,995.12
2022-09-28T10:58:35.854Z,995.07
2022-09-28T11:00:51.353Z,995.03
2022-09-28T11:03:12.095Z,995.10
2022-09-28T11:05:27.875Z,995.05
2022-09-28T11:07:45.943Z,995.06
2022-09-28T11:10:01.553Z,995.07
2022-09-28T11:12:19.613Z,994.98
2022-09-28T11:14:42.756Z,995.00
2022-09-28T11:16:58.516Z,994.97
2022-09-28T11:19:16.398Z,994.96
2022-09-28T11:21:34.756Z,994.98
2022-09-28T11:23:47.225Z,995.01
2022-09-28T11:26:05.400Z,995.04
2022-09-28T11:28:23.334Z,995.06
2022-09-28T11:31:05.489Z,995.04
2022-09-28T11:33:20.922Z,995.06
2022-09-28T11:35:36.466Z,995.01
2022-09-28T11:37:52.107Z,995.06
2022-09-28T11:40:10.172Z,995.11
2022-09-28T11:42:28.189Z,995.11
2022-09-28T11:44:43.772Z,995.10
2022-09-28T11:46:58.700Z,995.16
2022-09-28T11:49:19.490Z,995.13
2022-09-28T11:51:32.536Z,995.16
2022-09-28T11:53:48.717Z,995.17
2022-09-28T11:56:08.512Z,995.20
2022-09-28T11:58:22.912Z,995.19
2022-09-28T12:00:40.529Z,995.17
2022-09-28T12:02:58.773Z,995.17
2022-09-28T12:05:20.693Z,995.16
2022-09-28T12:07:34.982Z,995.16
2022-09-28T12:09:51.353Z,995.18
2022-09-28T12:12:09.513Z,995.14
2022-09-28T12:14:26.263Z,995.16
2022-09-28T12:17:42.604Z,995.14
2022-09-28T12:19:59.651Z,995.13
2022-09-28T12:22:15.224Z,995.09
2022-09-28T12:24:33.330Z,995.10
2022-09-28T12:26:48.114Z,995.11
2022-09-28T12:29:06.178Z,995.10
2022-09-28T12:31:21.644Z,995.05
2022-09-28T12:33:37.286Z,995.13
2022-09-28T12:35:55.392Z,995.11
2022-09-28T12:38:09.172Z,995.12
2022-09-28T12:41:10.969Z,995.21
2022-09-28T12:43:26.552Z,995.19
2022-09-28T12:46:37.131Z,995.20
2022-09-28T12:49:36.771Z,995.18
2022-09-28T12:50:37.146Z,995.21
2022-09-28T12:52:09.785Z,995.21
2022-09-28T12:54:25.443Z,995.19
2022-09-28T12:56:43.513Z,995.23
2022-09-28T12:59:01.662Z,995.22
2022-09-28T13:01:15.152Z,995.21
2022-09-28T13:03:30.696Z,995.22
2022-09-28T13:05:46.414Z,995.23
2022-09-28T13:08:01.960Z,995.27
2022-09-28T13:10:17.448Z,995.22
2022-09-28T13:12:33.053Z,995.25
2022-09-28T13:14:48.646Z,995.31
2022-09-28T13:17:04.200Z,995.30
2022-09-28T13:19:19.952Z,995.27
2022-09-28T13:21:35.372Z,995.31
2022-09-28T13:23:51.948Z,995.32
2022-09-28T13:26:07.543Z,995.29
2022-09-28T13:28:26.269Z,995.25
2022-09-28T13:30:40.357Z,995.28
2022-09-28T13:32:54.347Z,995.29
2022-09-28T13:35:07.863Z,995.25
2022-09-28T13:37:22.975Z,995.26
2022-09-28T13:39:36.025Z,995.30
2022-09-28T13:41:51.601Z,995.31
2022-09-28T13:44:04.693Z,995.33
2022-09-28T13:46:21.956Z,995.31
2022-09-28T13:48:36.877Z,995.33
2022-09-28T13:50:49.927Z,995.41
2022-09-28T13:53:05.523Z,995.39
2022-09-28T13:55:18.629Z,995.39
2022-09-28T13:57:34.497Z,995.40
2022-09-28T13:59:51.124Z,995.40
2022-09-28T14:02:07.034Z,995.42
2022-09-28T14:04:21.257Z,995.42
2022-09-28T14:06:37.691Z,995.52
2022-09-28T14:08:49.920Z,995.51
2022-09-28T14:11:05.526Z,995.53
2022-09-28T14:13:19.107Z,995.56
2022-09-28T14:15:32.325Z,995.59
2022-09-28T14:17:47.752Z,995.62
2022-09-28T14:20:01.379Z,995.62
2022-09-28T14:22:16.937Z,995.61
2022-09-28T14:24:30.000Z,995.62
2022-09-28T14:26:45.704Z,995.64
2022-09-28T14:28:58.661Z,995.74
2022-09-28T14:31:14.262Z,995.73
2022-09-28T14:33:28.408Z,995.73
2022-09-28T14:35:41.451Z,995.75
2022-09-28T14:37:55.048Z,995.77
2022-09-28T14:40:10.627Z,995.79
2022-09-28T14:42:26.215Z,995.82
2022-09-28T14:44:41.839Z,995.84
2022-09-28T14:46:57.390Z,995.86
2022-09-28T14:49:10.960Z,995.88
2022-09-28T14:51:26.584Z,995.90
2022-09-28T14:53:42.956Z,995.87
2022-09-28T14:55:55.744Z,995.90
2022-09-28T14:58:11.893Z,995.84
2022-09-28T15:00:24.890Z,995.89
2022-09-28T15:02:36.964Z,995.89
2022-09-28T15:04:52.716Z,995.94
2022-09-28T15:07:08.165Z,995.91
2022-09-28T15:09:23.719Z,995.91
2022-09-28T15:11:35.797Z,995.94
2022-09-28T15:13:48.883Z,995.92
2022-09-28T15:16:01.062Z,995.92
2022-09-28T15:18:14.604Z,995.98
2022-09-28T15:20:29.191Z,995.97
2022-09-28T15:22:44.767Z,995.98
2022-09-28T15:25:02.829Z,995.98
2022-09-28T15:27:13.967Z,996.02
2022-09-28T15:29:29.566Z,996.03
2022-09-28T15:31:52.234Z,996.06
2022-09-28T15:34:03.421Z,996.16
2022-09-28T15:36:18.849Z,996.13
2022-09-28T15:38:30.924Z,996.15
2022-09-28T15:40:43.074Z,996.15
2022-09-28T15:42:59.202Z,996.21
2022-09-28T15:45:11.656Z,996.25
2022-09-28T15:47:26.235Z,996.30
2022-09-28T15:49:41.809Z,996.33
2022-09-28T15:51:54.917Z,996.34
2022-09-28T15:54:08.492Z,996.38
2022-09-28T15:56:22.070Z,996.42
2022-09-28T15:58:35.669Z,996.39
2022-09-28T16:00:51.260Z,996.41
2022-09-28T16:03:03.490Z,996.45
2022-09-28T16:05:16.960Z,996.40
2022-09-28T16:07:32.519Z,996.42
2022-09-28T16:09:48.100Z,996.42
2022-09-28T16:12:01.682Z,996.49
2022-09-28T16:14:18.318Z,996.52
2022-09-28T16:16:32.849Z,996.54
2022-09-28T16:18:48.428Z,996.59
2022-09-28T16:21:04.032Z,996.57
2022-09-28T16:23:22.108Z,996.61
2022-09-28T16:25:35.224Z,996.62
2022-09-28T16:27:49.796Z,996.63
2022-09-28T16:30:06.203Z,996.67
2022-09-28T16:33:46.612Z,996.67
2022-09-28T16:36:00.222Z,996.68
2022-09-28T16:38:13.293Z,996.70
2022-09-28T16:40:28.955Z,996.69
2022-09-28T16:43:22.441Z,996.72
2022-09-28T16:45:36.885Z,996.76
2022-09-28T16:47:51.086Z,996.80
2022-09-28T16:50:09.281Z,996.80
2022-09-28T16:53:48.773Z,996.88
2022-09-28T16:57:18.266Z,996.87
2022-09-28T16:59:33.486Z,996.87
2022-09-28T17:02:09.221Z,996.90
2022-09-28T17:05:38.804Z,996.89
2022-09-28T17:11:37.820Z,996.95
2022-09-28T17:15:07.205Z,996.96
2022-09-28T17:18:57.731Z,996.97
2022-09-28T17:21:07.775Z,996.98
2022-09-28T17:23:29.358Z,996.98
2022-09-28T17:29:04.991Z,997.03
2022-09-28T17:38:20.831Z,997.08
2022-09-28T17:43:42.340Z,997.15
2022-09-28T17:45:56.946Z,997.19
2022-09-28T17:49:35.880Z,997.18
2022-09-28T17:51:51.489Z,997.22
2022-09-28T17:54:08.169Z,997.20
2022-09-28T18:34:07.615Z,997.51
2022-09-28T18:37:00.746Z,997.48
2022-09-28T18:40:15.710Z,997.53
2022-09-28T18:42:36.120Z,997.49
2022-09-28T18:50:02.336Z,997.57
2022-09-28T18:52:20.206Z,997.58
2022-09-28T18:54:38.755Z,997.61
2022-09-28T18:56:56.404Z,997.62
2022-09-28T18:59:17.675Z,997.67
2022-09-28T19:01:34.178Z,997.69
2022-09-28T19:03:55.747Z,997.72
2022-09-28T19:06:16.354Z,997.73
2022-09-28T19:09:45.801Z,997.76
2022-09-28T19:15:50.425Z,997.80
2022-09-28T19:18:06.911Z,997.76
2022-09-28T19:22:07.371Z,997.82
2022-09-28T19:24:23.924Z,997.80
2022-09-28T19:39:10.740Z,997.90
2022-09-28T19:41:39.372Z,997.88
2022-09-28T19:45:40.395Z,997.96
2022-09-28T19:55:35.248Z,998.00
2022-09-28T20:00:31.976Z,998.00
2022-09-28T20:02:48.426Z,998.02
2022-09-28T20:05:02.926Z,998.01
2022-09-28T20:07:23.643Z,998.06
2022-09-28T20:09:41.645Z,998.10
2022-09-28T20:11:58.874Z,998.12
2022-09-28T20:15:23.028Z,998.15
2022-09-28T20:18:19.498Z,998.17
2022-09-28T20:22:11.512Z,998.24
2022-09-28T20:25:58.213Z,998.32
2022-09-28T20:29:21.734Z,998.31
2022-09-28T20:31:51.942Z,998.29
2022-09-28T20:34:12.462Z,998.32
2022-09-28T20:36:56.457Z,998.38
2022-09-28T20:39:13.637Z,998.41
2022-09-28T20:44:42.121Z,998.43
2022-09-28T20:58:30.733Z,998.58
2022-09-28T21:00:49.823Z,998.58
2022-09-28T21:03:41.520Z,998.63
2022-09-28T21:16:58.140Z,998.74
2022-09-28T21:19:15.464Z,998.70
2022-09-28T21:23:45.928Z,998.79
2022-09-28T21:26:47.685Z,998.80
2022-09-28T21:29:25.966Z,998.82
2022-09-28T21:32:35.241Z,998.87
2022-09-28T21:35:48.396Z,998.90
2022-09-28T21:38:09.221Z,998.86
2022-09-28T21:40:30.586Z,998.84
2022-09-28T21:42:47.116Z,998.83
2022-09-28T21:45:05.050Z,998.90
2022-09-28T21:47:22.843Z,998.87
2022-09-28T21:49:43.646Z,998.95
2022-09-28T21:52:01.460Z,998.91
2022-09-28T21:54:17.390Z,998.97
2022-09-28T21:58:38.395Z,999.02
2022-09-28T22:11:44.367Z,999.05
2022-09-28T22:14:18.659Z,999.01
2022-09-28T22:17:18.982Z,998.99
2022-09-28T22:20:02.173Z,998.96
2022-09-28T22:22:56.703Z,998.93
2022-09-28T22:25:17.286Z,998.96
2022-09-28T22:27:31.760Z,998.97
2022-09-28T22:30:34.172Z,998.98
2022-09-28T22:32:56.474Z,998.98
2022-09-28T22:35:31.477Z,999.03
2022-09-28T22:38:22.205Z,999.02
2022-09-28T22:42:02.857Z,999.01
2022-09-28T22:44:20.854Z,999.01
2022-09-28T22:46:40.026Z,998.97
2022-09-28T22:48:56.312Z,999.03
2022-09-28T22:51:13.300Z,999.04
2022-09-28T22:57:08.858Z,999.05
2022-09-28T23:05:38.561Z,999.17
2022-09-28T23:08:09.249Z,999.17
2022-09-28T23:10:26.306Z,999.20
2022-09-28T23:12:42.842Z,999.23
2022-09-28T23:15:01.322Z,999.21
2022-09-28T23:17:21.958Z,999.25
2022-09-28T23:21:43.197Z,999.31
2022-09-28T23:24:04.746Z,999.33
2022-09-28T23:26:21.604Z,999.27
2022-09-28T23:28:42.388Z,999.22
2022-09-28T23:31:03.409Z,999.20
2022-09-28T23:33:22.419Z,999.18
2022-09-28T23:35:51.512Z,999.18
2022-09-28T23:38:09.506Z,999.17
2022-09-28T23:40:26.446Z,999.17
2022-09-28T23:42:42.994Z,999.16
